createdAt,value
2019-01-28T00:02:06.155Z,95838.45
2019-01-28T00:04:34.597Z,95844.73
2019-01-28T00:07:03.036Z,95846.52
2019-01-28T00:09:31.500Z,95852.80
2019-01-28T00:11:59.938Z,95859.20
2019-01-28T00:14:28.375Z,95851.45
2019-01-28T00:16:57.504Z,95850.66
2019-01-28T00:19:26.459Z,95864.27
2019-01-28T00:21:55.174Z,95857.34
2019-01-28T00:24:23.889Z,95865.62
2019-01-28T00:26:52.331Z,95859.05
2019-01-28T00:29:21.017Z,95856.69
2019-01-28T00:31:49.453Z,95852.64
2019-01-28T00:34:18.156Z,95846.52
2019-01-28T00:36:46.582Z,95842.65
2019-01-28T00:39:15.021Z,95846.70
2019-01-28T00:41:43.446Z,95839.16
2019-01-28T00:44:12.210Z,95853.20
2019-01-28T00:46:41.205Z,95848.94
2019-01-28T00:49:09.997Z,95853.84
2019-01-28T00:51:38.425Z,95849.39
2019-01-28T00:54:08.984Z,95843.84
2019-01-28T00:56:37.407Z,95850.68
2019-01-28T00:59:06.171Z,95851.38
2019-01-28T01:01:34.855Z,95851.14
2019-01-28T01:04:03.647Z,95857.97
2019-01-28T01:06:32.066Z,95854.81
2019-01-28T01:09:00.824Z,95851.94
2019-01-28T01:11:31.380Z,95853.53
2019-01-28T01:14:00.126Z,95864.41
2019-01-28T01:16:28.556Z,95862.17
2019-01-28T01:18:57.290Z,95848.59
2019-01-28T01:21:25.953Z,95853.84
2019-01-28T01:23:54.386Z,95848.44
2019-01-28T01:26:23.161Z,95850.92
2019-01-28T01:28:51.588Z,95847.36
2019-01-28T01:31:20.023Z,95849.35
2019-01-28T01:33:48.445Z,95850.58
2019-01-28T01:36:17.175Z,95861.08
2019-01-28T01:38:45.598Z,95854.73
2019-01-28T01:41:14.037Z,95852.91
2019-01-28T01:43:42.469Z,95848.78
2019-01-28T01:46:11.504Z,95836.98
2019-01-28T01:48:40.495Z,95840.45
2019-01-28T01:51:08.934Z,95840.14
2019-01-28T01:53:37.376Z,95828.13
2019-01-28T01:56:05.800Z,95832.52
2019-01-28T01:58:34.222Z,95836.98
2019-01-28T02:01:02.663Z,95823.96
2019-01-28T02:03:31.483Z,95821.97
2019-01-28T02:06:00.275Z,95824.70
2019-01-28T02:08:29.022Z,95811.68
2019-01-28T02:10:57.469Z,95814.07
2019-01-28T02:13:26.288Z,95817.08
2019-01-28T02:15:55.017Z,95823.88
2019-01-28T02:18:24.130Z,95820.20
2019-01-28T02:20:52.552Z,95818.30
2019-01-28T02:23:21.057Z,95812.76
2019-01-28T02:25:49.507Z,95807.95
2019-01-28T02:28:18.245Z,95805.70
2019-01-28T02:30:46.669Z,95796.27
2019-01-28T02:33:15.416Z,95811.72
2019-01-28T02:35:43.856Z,95801.30
2019-01-28T02:38:12.288Z,95798.74
2019-01-28T02:40:40.982Z,95804.23
2019-01-28T02:43:09.407Z,95807.02
2019-01-28T02:45:37.838Z,95800.83
2019-01-28T02:48:06.286Z,95800.38
2019-01-28T02:50:34.722Z,95801.72
2019-01-28T02:53:03.458Z,95798.97
2019-01-28T02:55:32.243Z,95786.58
2019-01-28T02:58:00.676Z,95790.88
2019-01-28T03:00:29.088Z,95794.86
2019-01-28T03:02:57.527Z,95786.82
2019-01-28T03:05:25.972Z,95789.70
2019-01-28T03:07:54.403Z,95781.92
2019-01-28T03:10:23.310Z,95779.86
2019-01-28T03:12:51.777Z,95776.95
2019-01-28T03:15:20.475Z,95789.30
2019-01-28T03:17:48.912Z,95781.85
2019-01-28T03:20:18.172Z,95788.47
2019-01-28T03:22:46.970Z,95771.95
2019-01-28T03:25:15.752Z,95778.33
2019-01-28T03:27:44.200Z,95781.81
2019-01-28T03:30:14.680Z,95777.31
2019-01-28T03:32:43.445Z,95772.47
2019-01-28T03:35:11.857Z,95779.13
2019-01-28T03:37:40.304Z,95772.14
2019-01-28T03:40:11.658Z,95771.92
2019-01-28T03:42:40.100Z,95769.44
2019-01-28T03:45:11.540Z,95772.78
2019-01-28T03:47:40.272Z,95761.78
2019-01-28T03:50:09.679Z,95766.03
2019-01-28T03:52:38.114Z,95767.97
2019-01-28T03:55:07.306Z,95756.38
2019-01-28T03:57:35.744Z,95763.43
2019-01-28T04:00:05.169Z,95758.84
2019-01-28T04:02:33.604Z,95755.59
2019-01-28T04:05:02.030Z,95755.25
2019-01-28T04:07:30.481Z,95748.20
2019-01-28T04:09:59.268Z,95750.81
2019-01-28T04:12:27.707Z,95757.22
2019-01-28T04:14:56.186Z,95749.50
2019-01-28T04:17:24.626Z,95765.45
2019-01-28T04:19:53.070Z,95750.63
2019-01-28T04:22:21.507Z,95754.67
2019-01-28T04:24:49.948Z,95744.99
2019-01-28T04:27:18.390Z,95754.52
2019-01-28T04:29:46.824Z,95734.21
2019-01-28T04:32:15.516Z,95737.24
2019-01-28T04:34:44.238Z,95727.71
2019-01-28T04:37:14.862Z,95729.46
2019-01-28T04:39:43.299Z,95724.77
2019-01-28T04:42:12.073Z,95727.71
2019-01-28T04:44:40.769Z,95718.98
2019-01-28T04:47:10.281Z,95725.48
2019-01-28T04:49:38.714Z,95722.44
2019-01-28T04:52:07.129Z,95718.98
2019-01-28T04:54:35.569Z,95739.75
2019-01-28T04:57:03.998Z,95712.09
2019-01-28T04:59:32.777Z,95709.94
2019-01-28T05:02:01.460Z,95711.29
2019-01-28T05:04:29.900Z,95700.94
2019-01-28T05:06:58.329Z,95697.26
2019-01-28T05:09:27.099Z,95698.52
2019-01-28T05:11:57.604Z,95708.66
2019-01-28T05:14:26.317Z,95697.07
2019-01-28T05:16:55.309Z,95700.41
2019-01-28T05:19:23.748Z,95691.77
2019-01-28T05:21:52.427Z,95689.51
2019-01-28T05:24:20.892Z,95694.41
2019-01-28T05:26:49.312Z,95681.73
2019-01-28T05:29:17.749Z,95682.09
2019-01-28T05:31:46.497Z,95680.28
2019-01-28T05:34:15.281Z,95673.45
2019-01-28T05:36:43.707Z,95680.44
2019-01-28T05:39:12.205Z,95674.70
2019-01-28T05:41:40.630Z,95670.71
2019-01-28T05:44:09.061Z,95669.13
2019-01-28T05:46:37.486Z,95677.45
2019-01-28T05:49:06.215Z,95670.02
2019-01-28T05:51:34.640Z,95663.37
2019-01-28T05:54:03.085Z,95661.71
2019-01-28T05:56:32.085Z,95664.81
2019-01-28T05:59:00.797Z,95663.00
2019-01-28T06:01:29.223Z,95663.13
2019-01-28T06:03:57.942Z,95681.23
2019-01-28T06:06:26.663Z,95671.09
2019-01-28T06:08:55.111Z,95660.06
2019-01-28T06:11:23.834Z,95676.43
2019-01-28T06:13:52.924Z,95670.77
2019-01-28T06:16:21.606Z,95674.20
2019-01-28T06:18:50.094Z,95681.27
2019-01-28T06:21:18.527Z,95676.28
2019-01-28T06:23:46.998Z,95675.12
2019-01-28T06:26:15.434Z,95681.64
2019-01-28T06:28:44.222Z,95675.12
2019-01-28T06:31:12.657Z,95675.55
2019-01-28T06:33:41.085Z,95673.95
2019-01-28T06:36:09.801Z,95677.78
2019-01-28T06:38:38.556Z,95681.58
2019-01-28T06:41:06.997Z,95681.12
2019-01-28T06:43:36.288Z,95676.52
2019-01-28T06:46:05.021Z,95687.14
2019-01-28T06:48:33.705Z,95691.12
2019-01-28T06:51:02.136Z,95693.53
2019-01-28T06:53:30.569Z,95695.77
2019-01-28T06:55:59.003Z,95697.75
2019-01-28T06:58:27.415Z,95698.20
2019-01-28T07:00:55.854Z,95699.80
2019-01-28T07:03:24.583Z,95704.48
2019-01-28T07:05:53.070Z,95710.33
2019-01-28T07:08:21.494Z,95706.08
2019-01-28T07:10:50.284Z,95709.16
2019-01-28T07:13:18.845Z,95714.72
2019-01-28T07:15:47.335Z,95715.59
2019-01-28T07:18:16.253Z,95720.06
2019-01-28T07:20:44.705Z,95722.25
2019-01-28T07:23:13.142Z,95727.97
2019-01-28T07:25:41.850Z,95726.38
2019-01-28T07:28:10.520Z,95723.14
2019-01-28T07:30:39.316Z,95729.48
2019-01-28T07:33:07.739Z,95724.02
2019-01-28T07:35:37.295Z,95724.78
2019-01-28T07:38:05.984Z,95738.25
2019-01-28T07:40:34.434Z,95732.48
2019-01-28T07:43:02.848Z,95732.56
2019-01-28T07:45:33.469Z,95733.61
2019-01-28T07:48:03.179Z,95740.64
2019-01-28T07:50:31.752Z,95737.48
2019-01-28T07:53:00.447Z,95735.13
2019-01-28T07:55:28.879Z,95744.77
2019-01-28T07:57:57.320Z,95746.28
2019-01-28T08:00:26.742Z,95748.55
2019-01-28T08:02:55.491Z,95744.44
2019-01-28T08:05:24.185Z,95752.51
2019-01-28T08:07:52.623Z,95751.16
2019-01-28T08:10:21.091Z,95748.25
2019-01-28T08:12:49.567Z,95754.98
2019-01-28T08:15:19.263Z,95752.05
2019-01-28T08:17:48.429Z,95751.83
2019-01-28T08:20:18.074Z,95765.59
2019-01-28T08:22:46.530Z,95768.62
2019-01-28T08:25:16.187Z,95767.73
2019-01-28T08:27:44.921Z,95767.73
2019-01-28T08:30:19.339Z,95776.69
2019-01-28T08:32:48.147Z,95777.58
2019-01-28T08:35:16.843Z,95778.20
2019-01-28T08:37:45.277Z,95779.93
2019-01-28T08:40:14.301Z,95778.36
2019-01-28T08:42:42.732Z,95778.74
2019-01-28T08:45:11.402Z,95774.02
2019-01-28T08:47:39.845Z,95774.23
2019-01-28T08:50:10.376Z,95767.29
2019-01-28T08:52:38.805Z,95772.27
2019-01-28T08:55:14.317Z,95775.67
2019-01-28T08:57:39.792Z,95765.70
2019-01-28T09:00:11.872Z,95763.14
2019-01-28T09:02:39.584Z,95773.70
2019-01-28T09:05:08.918Z,95773.28
2019-01-28T09:07:37.747Z,95769.96
2019-01-28T09:10:06.951Z,95772.02
2019-01-28T09:12:35.697Z,95767.73
2019-01-28T09:15:04.723Z,95764.24
2019-01-28T09:17:33.163Z,95767.02
2019-01-28T09:20:01.575Z,95773.97
2019-01-28T09:22:30.639Z,95774.22
2019-01-28T09:24:59.065Z,95765.01
2019-01-28T09:27:27.502Z,95771.19
2019-01-28T09:29:56.201Z,95780.53
2019-01-28T09:32:24.633Z,95778.55
2019-01-28T09:34:53.656Z,95779.27
2019-01-28T09:37:22.100Z,95782.67
2019-01-28T09:39:50.523Z,95785.11
2019-01-28T09:42:18.946Z,95789.06
2019-01-28T09:44:47.688Z,95790.80
2019-01-28T09:47:16.429Z,95790.00
2019-01-28T09:49:44.869Z,95792.05
2019-01-28T09:52:13.533Z,95790.29
2019-01-28T09:54:43.634Z,95798.63
2019-01-28T09:57:12.440Z,95803.13
2019-01-28T09:59:40.862Z,95808.30
2019-01-28T10:02:09.609Z,95810.41
2019-01-28T10:04:38.041Z,95806.70
2019-01-28T10:07:06.728Z,95804.26
2019-01-28T10:09:35.554Z,95813.11
2019-01-28T10:12:04.031Z,95807.17
2019-01-28T10:14:32.473Z,95813.91
2019-01-28T10:17:01.413Z,95814.38
2019-01-28T10:19:30.518Z,95812.64
2019-01-28T10:21:58.951Z,95812.64
2019-01-28T10:24:27.382Z,95800.68
2019-01-28T10:26:55.801Z,95817.85
2019-01-28T10:29:24.248Z,95808.66
2019-01-28T10:31:52.970Z,95816.58
2019-01-28T10:34:21.401Z,95818.60
2019-01-28T10:36:50.205Z,95817.75
2019-01-28T10:39:18.969Z,95821.12
2019-01-28T10:41:47.401Z,95817.58
2019-01-28T10:44:15.837Z,95819.84
2019-01-28T10:46:44.522Z,95823.72
2019-01-28T10:49:13.313Z,95826.84
2019-01-28T10:51:41.724Z,95830.30
2019-01-28T10:54:10.406Z,95833.58
2019-01-28T10:56:38.830Z,95830.81
2019-01-28T10:59:07.431Z,95829.92
2019-01-28T11:01:35.864Z,95832.78
2019-01-28T11:04:04.600Z,95837.63
2019-01-28T11:06:33.099Z,95835.39
2019-01-28T11:09:02.196Z,95839.89
2019-01-28T11:11:30.615Z,95841.88
2019-01-28T11:13:59.146Z,95842.68
2019-01-28T11:16:27.558Z,95843.66
2019-01-28T11:18:57.863Z,95845.30
2019-01-28T11:21:26.215Z,95854.44
2019-01-28T11:23:54.696Z,95847.91
2019-01-28T11:26:23.205Z,95851.95
2019-01-28T11:28:51.606Z,95853.64
2019-01-28T11:31:20.174Z,95856.84
2019-01-28T11:33:48.854Z,95849.44
2019-01-28T11:36:17.357Z,95858.15
2019-01-28T11:38:45.918Z,95861.16
2019-01-28T11:41:14.743Z,95860.90
2019-01-28T11:43:43.161Z,95856.61
2019-01-28T11:46:11.563Z,95862.92
2019-01-28T11:48:40.456Z,95856.27
2019-01-28T11:51:09.118Z,95860.23
2019-01-28T11:53:37.557Z,95867.69
2019-01-28T11:56:05.991Z,95868.32
2019-01-28T11:58:34.414Z,95870.93
2019-01-28T12:01:11.527Z,95880.69
2019-01-28T12:03:40.322Z,95877.83
2019-01-28T12:06:08.767Z,95871.80
2019-01-28T12:11:28.898Z,95889.64
2019-01-28T12:13:57.304Z,95883.69
2019-01-28T12:16:25.758Z,95892.91
2019-01-28T12:18:54.179Z,95902.58
2019-01-28T12:21:22.618Z,95902.99
2019-01-28T12:23:51.278Z,95902.75
2019-01-28T12:26:19.710Z,95904.17
2019-01-28T12:28:48.371Z,95913.14
2019-01-28T12:31:17.251Z,95915.30
2019-01-28T12:33:46.760Z,95922.05
2019-01-28T12:36:15.252Z,95926.39
2019-01-28T12:38:43.936Z,95934.38
2019-01-28T12:41:17.325Z,95933.67
2019-01-28T12:43:42.916Z,95944.13
2019-01-28T12:46:11.352Z,95947.16
2019-01-28T12:48:39.812Z,95949.39
2019-01-28T12:51:08.492Z,95956.70
2019-01-28T12:53:37.654Z,95959.39
2019-01-28T12:56:06.481Z,95958.12
2019-01-28T12:58:34.914Z,95961.80
2019-01-28T13:01:05.186Z,95972.08
2019-01-28T13:03:33.610Z,95964.56
2019-01-28T13:06:02.350Z,95972.83
2019-01-28T13:08:31.149Z,95975.28
2019-01-28T13:10:59.601Z,95978.73
2019-01-28T13:13:28.295Z,95977.97
2019-01-28T13:15:56.992Z,95981.52
2019-01-28T13:18:25.977Z,95986.83
2019-01-28T13:20:54.405Z,95991.13
2019-01-28T13:23:23.147Z,95999.94
2019-01-28T13:25:51.571Z,96009.38
2019-01-28T13:28:20.007Z,96012.45
2019-01-28T13:30:48.431Z,96015.48
2019-01-28T13:33:17.445Z,96022.95
2019-01-28T13:35:46.169Z,96030.87
2019-01-28T13:38:14.750Z,96035.39
2019-01-28T13:40:43.437Z,96040.78
2019-01-28T13:43:11.933Z,96047.20
2019-01-28T13:45:40.374Z,96055.38
2019-01-28T13:48:12.586Z,96059.42
2019-01-28T13:50:41.352Z,96069.28
2019-01-28T13:53:10.101Z,96075.06
2019-01-28T13:55:38.537Z,96080.23
2019-01-28T13:58:06.968Z,96086.33
2019-01-28T14:00:35.380Z,96089.19
2019-01-28T14:03:03.860Z,96093.48
2019-01-28T14:05:32.559Z,96096.18
2019-01-28T14:08:01.009Z,96110.52
2019-01-28T14:10:29.469Z,96109.47
2019-01-28T14:12:57.912Z,96117.09
2019-01-28T14:15:29.073Z,96131.70
2019-01-28T14:17:57.814Z,96127.40
2019-01-28T14:20:29.557Z,96140.73
2019-01-28T14:22:58.322Z,96141.28
2019-01-28T14:25:26.762Z,96154.06
2019-01-28T14:27:55.395Z,96150.09
2019-01-28T14:30:41.743Z,96160.41
2019-01-28T14:33:10.221Z,96162.55
2019-01-28T14:35:39.499Z,96168.80
2019-01-28T14:38:09.138Z,96176.88
2019-01-28T14:40:38.588Z,96178.23
2019-01-28T14:43:07.029Z,96181.43
2019-01-28T14:45:35.603Z,96186.36
2019-01-28T14:48:04.179Z,96181.51
2019-01-28T14:50:32.969Z,96193.90
2019-01-28T14:53:02.039Z,96197.80
2019-01-28T14:55:30.484Z,96202.31
2019-01-28T14:57:59.015Z,96203.29
2019-01-28T15:00:32.875Z,96208.91
2019-01-28T15:03:01.306Z,96205.91
2019-01-28T15:05:29.828Z,96216.63
2019-01-28T15:07:58.344Z,96219.55
2019-01-28T15:10:26.911Z,96231.87
2019-01-28T15:12:55.586Z,96223.45
2019-01-28T15:15:29.558Z,96238.69
2019-01-28T15:18:01.417Z,96240.52
2019-01-28T15:20:29.860Z,96238.28
2019-01-28T15:22:59.581Z,96243.46
2019-01-28T15:25:28.470Z,96250.28
2019-01-28T15:27:56.924Z,96246.16
2019-01-28T15:30:27.004Z,96259.36
2019-01-28T15:32:55.494Z,96259.83
2019-01-28T15:35:23.950Z,96267.92
2019-01-28T15:37:52.368Z,96277.62
2019-01-28T15:40:23.079Z,96283.49
2019-01-28T15:42:51.518Z,96283.09
2019-01-28T15:45:22.351Z,96292.20
2019-01-28T15:47:51.098Z,96293.08
2019-01-28T15:50:19.623Z,96301.66
2019-01-28T15:52:48.049Z,96309.75
2019-01-28T15:55:22.408Z,96311.03
2019-01-28T15:57:51.215Z,96315.95
2019-01-28T16:00:22.457Z,96313.80
2019-01-28T16:02:50.981Z,96326.48
2019-01-28T16:05:20.145Z,96336.01
2019-01-28T16:07:48.563Z,96344.50
2019-01-28T16:10:17.381Z,96349.64
2019-01-28T16:12:45.871Z,96358.75
2019-01-28T16:15:23.225Z,96361.46
2019-01-28T16:17:51.692Z,96364.42
2019-01-28T16:20:20.540Z,96377.56
2019-01-28T16:22:49.119Z,96382.09
2019-01-28T16:25:17.501Z,96391.44
2019-01-28T16:27:45.939Z,96400.66
2019-01-28T16:30:17.060Z,96400.02
2019-01-28T16:32:45.485Z,96415.31
2019-01-28T16:35:14.834Z,96414.20
2019-01-28T16:37:43.257Z,96424.84
2019-01-28T16:40:13.889Z,96424.95
2019-01-28T16:42:42.343Z,96432.38
2019-01-28T16:45:12.145Z,96445.98
2019-01-28T16:47:40.575Z,96443.54
2019-01-28T16:50:10.445Z,96453.67
2019-01-28T16:52:39.128Z,96462.61
2019-01-28T16:55:08.918Z,96464.27
2019-01-28T16:57:38.001Z,96473.98
2019-01-28T17:00:09.571Z,96490.68
2019-01-28T17:02:37.995Z,96490.14
2019-01-28T17:05:07.452Z,96488.80
2019-01-28T17:07:36.364Z,96498.58
2019-01-28T17:10:06.719Z,96500.16
2019-01-28T17:12:35.259Z,96514.14
2019-01-28T17:15:04.424Z,96518.52
2019-01-28T17:17:33.628Z,96532.08
2019-01-28T17:20:02.045Z,96530.78
2019-01-28T17:22:30.503Z,96531.32
2019-01-28T17:24:58.923Z,96546.13
2019-01-28T17:27:27.649Z,96549.94
2019-01-28T17:29:56.079Z,96548.87
2019-01-28T17:32:24.514Z,96561.52
2019-01-28T17:34:52.944Z,96557.48
2019-01-28T17:37:21.671Z,96573.64
2019-01-28T17:39:50.092Z,96579.83
2019-01-28T17:42:18.524Z,96591.99
2019-01-28T17:44:46.957Z,96592.30
2019-01-28T17:47:16.006Z,96597.69
2019-01-28T17:49:44.441Z,96613.58
2019-01-28T17:52:12.872Z,96606.30
2019-01-28T17:54:41.959Z,96615.73
2019-01-28T17:57:10.399Z,96612.19
2019-01-28T17:59:38.825Z,96624.30
2019-01-28T18:02:07.255Z,96621.02
2019-01-28T18:04:36.011Z,96629.95
2019-01-28T18:07:04.460Z,96629.68
2019-01-28T18:09:32.892Z,96629.19
2019-01-28T18:12:01.381Z,96645.07
2019-01-28T18:14:29.887Z,96649.69
2019-01-28T18:16:58.593Z,96650.22
2019-01-28T18:19:27.998Z,96660.23
2019-01-28T18:21:56.801Z,96666.96
2019-01-28T18:24:25.234Z,96668.30
2019-01-28T18:26:53.790Z,96672.61
2019-01-28T18:29:22.742Z,96684.19
2019-01-28T18:31:51.424Z,96677.23
2019-01-28T18:34:19.855Z,96688.23
2019-01-28T18:36:48.596Z,96694.42
2019-01-28T18:39:17.355Z,96700.34
2019-01-28T18:41:46.014Z,96701.61
2019-01-28T18:44:14.479Z,96712.14
2019-01-28T18:46:42.925Z,96713.48
2019-01-28T18:49:11.410Z,96720.80
2019-01-28T18:51:41.138Z,96724.07
2019-01-28T18:54:09.576Z,96729.45
2019-01-28T18:56:38.345Z,96741.33
2019-01-28T18:59:07.088Z,96737.88
2019-01-28T19:01:35.528Z,96747.53
2019-01-28T19:04:04.241Z,96755.60
2019-01-28T19:06:48.175Z,96762.09
2019-01-28T19:09:21.678Z,96766.91
2019-01-28T19:12:07.873Z,96772.06
2019-01-28T19:14:57.759Z,96778.25
2019-01-28T19:17:38.244Z,96778.25
2019-01-28T19:20:22.506Z,96788.52
2019-01-28T19:22:51.263Z,96798.74
2019-01-28T19:25:19.700Z,96803.05
2019-01-28T19:27:48.138Z,96809.27
2019-01-28T19:30:18.790Z,96811.45
2019-01-28T19:32:47.509Z,96811.96
2019-01-28T19:35:15.969Z,96828.95
2019-01-28T19:37:47.074Z,96830.03
2019-01-28T19:40:15.889Z,96838.37
2019-01-28T19:42:44.316Z,96847.02
2019-01-28T19:45:15.612Z,96856.17
2019-01-28T19:47:44.367Z,96857.81
2019-01-28T19:50:16.196Z,96861.89
2019-01-28T19:52:44.708Z,96867.81
2019-01-28T19:55:13.459Z,96876.42
2019-01-28T19:57:42.197Z,96865.39
2019-01-28T20:00:19.763Z,96885.56
2019-01-28T20:02:48.222Z,96875.91
2019-01-28T20:05:16.699Z,96876.15
2019-01-28T20:07:45.428Z,96892.06
2019-01-28T20:10:14.019Z,96885.56
2019-01-28T20:12:42.446Z,96894.48
2019-01-28T20:15:12.679Z,96900.19
2019-01-28T20:17:41.259Z,96909.34
2019-01-28T20:20:11.615Z,96904.47
2019-01-28T20:22:40.100Z,96913.08
2019-01-28T20:25:10.106Z,96916.28
2019-01-28T20:27:38.970Z,96913.61
2019-01-28T20:30:11.657Z,96917.35
2019-01-28T20:32:40.149Z,96926.20
2019-01-28T20:35:09.536Z,96939.93
2019-01-28T20:37:38.083Z,96936.45
2019-01-28T20:40:08.672Z,96937.80
2019-01-28T20:42:39.647Z,96940.49
2019-01-28T20:45:09.783Z,96947.46
2019-01-28T20:47:38.301Z,96954.19
2019-01-28T20:50:10.245Z,96952.09
2019-01-28T20:52:38.694Z,96957.72
2019-01-28T20:55:07.562Z,96968.27
2019-01-28T20:57:36.059Z,96965.04
2019-01-28T21:00:07.188Z,96972.03
2019-01-28T21:02:37.771Z,96982.55
2019-01-28T21:05:08.167Z,96976.15
2019-01-28T21:07:36.660Z,96983.17
2019-01-28T21:10:07.251Z,96983.77
2019-01-28T21:12:35.705Z,96981.31
2019-01-28T21:15:04.707Z,96994.20
2019-01-28T21:17:33.310Z,96998.75
2019-01-28T21:20:02.009Z,96993.69
2019-01-28T21:22:30.751Z,97003.10
2019-01-28T21:24:59.507Z,97005.84
2019-01-28T21:27:27.940Z,97014.98
2019-01-28T21:29:56.721Z,97013.64
2019-01-28T21:32:26.125Z,97026.88
2019-01-28T21:34:54.920Z,97029.04
2019-01-28T21:37:30.142Z,97025.32
2019-01-28T21:39:58.983Z,97032.36
2019-01-28T21:42:27.444Z,97035.06
2019-01-28T21:44:56.306Z,97042.39
2019-01-28T21:47:24.838Z,97043.46
2019-01-28T21:49:55.224Z,97052.89
2019-01-28T21:52:24.018Z,97057.75
2019-01-28T21:54:52.812Z,97064.20
2019-01-28T21:57:21.581Z,97064.44
2019-01-28T21:59:50.051Z,97070.05
2019-01-28T22:02:18.497Z,97071.98
2019-01-28T22:04:46.956Z,97075.50
2019-01-28T22:07:15.468Z,97078.52
2019-01-28T22:09:43.980Z,97075.57
2019-01-28T22:12:15.362Z,97080.43
2019-01-28T22:14:44.753Z,97077.73
2019-01-28T22:17:13.240Z,97084.98
2019-01-28T22:19:41.813Z,97083.91
2019-01-28T22:22:12.597Z,97083.09
2019-01-28T22:24:41.842Z,96792.55
2019-01-28T22:27:10.333Z,97095.16
2019-01-28T22:29:39.516Z,97095.16
2019-01-28T22:32:08.104Z,97109.41
2019-01-28T22:34:36.835Z,97107.57
2019-01-28T22:37:05.439Z,97111.06
2019-01-28T22:39:34.035Z,97114.53
2019-01-28T22:42:02.610Z,97114.00
2019-01-28T22:44:31.149Z,97127.16
2019-01-28T22:46:59.749Z,97122.00
2019-01-28T22:49:28.291Z,97129.50
2019-01-28T22:51:56.859Z,97130.30
2019-01-28T22:54:25.714Z,97130.55
2019-01-28T22:56:54.768Z,97133.24
2019-01-28T22:59:23.292Z,97131.90
2019-01-28T23:01:51.752Z,97140.24
2019-01-28T23:04:20.214Z,97139.17
2019-01-28T23:06:48.666Z,97138.05
2019-01-28T23:09:17.456Z,97141.83
2019-01-28T23:11:45.943Z,97146.38
2019-01-28T23:14:14.718Z,97140.97
2019-01-28T23:16:43.427Z,97148.50
2019-01-28T23:19:12.196Z,97150.36
2019-01-28T23:21:40.660Z,97153.86
2019-01-28T23:24:09.120Z,97157.63
2019-01-28T23:26:37.866Z,97161.41
2019-01-28T23:29:06.319Z,97161.38
2019-01-28T23:31:35.158Z,97162.98
2019-01-28T23:34:03.899Z,97165.44
2019-01-28T23:36:32.447Z,97179.94
2019-01-28T23:39:01.174Z,97173.21
2019-01-28T23:41:30.212Z,97175.08
2019-01-28T23:43:58.946Z,97189.88
2019-01-28T23:46:27.739Z,97181.80
2019-01-28T23:48:56.488Z,97192.80
2019-01-28T23:51:24.927Z,97193.34
2019-01-28T23:53:53.356Z,97193.63
2019-01-28T23:56:21.797Z,97199.27
2019-01-28T23:58:50.556Z,97207.08
